Time;durP1;ratioP1;P1;durP2;ratioP2;P2;SDS_P1;SDS_P2;PMS_P1;PMS_P2;Temp;Humidity;BMP_temperature;BMP_pressure;BME280_temperature;BME280_humidity;BME280_pressure;Samples;Min_cycle;Max_cycle;Signal;HPM_P1;HPM_P2
2022/05/12 00:00:44;;;;;;;7.97;1.23;;;;;;;;;;4958212;28;20233;-86
2022/05/12 00:03:12;;;;;;;7.18;1.05;;;;;;;;;;4958320;28;20057;-86
2022/05/12 00:05:38;;;;;;;5.72;1.30;;;;;;;;;;4958033;28;20054;-85
2022/05/12 00:08:04;;;;;;;4.07;1.00;;;;;;;;;;4958219;28;20039;-85
2022/05/12 00:10:30;;;;;;;3.78;0.93;;;;;;;;;;4958100;28;20398;-86
2022/05/12 00:12:58;;;;;;;5.93;1.67;;;;;;;;;;4958036;28;20047;-86
2022/05/12 00:15:26;;;;;;;3.60;1.05;;;;;;;;;;4957726;28;20046;-86
2022/05/12 00:17:52;;;;;;;7.45;1.02;;;;;;;;;;4974663;28;20042;-87
2022/05/12 00:20:20;;;;;;;4.10;0.70;;;;;;;;;;4958171;28;20077;-86
2022/05/12 00:22:46;;;;;;;3.47;0.90;;;;;;;;;;4941835;28;20047;-86
2022/05/12 00:25:13;;;;;;;7.22;1.45;;;;;;;;;;4957798;28;20054;-86
2022/05/12 00:27:39;;;;;;;4.97;1.00;;;;;;;;;;4957401;28;20043;-86
2022/05/12 00:30:09;;;;;;;6.25;1.10;;;;;;;;;;4957632;28;20505;-86
2022/05/12 00:32:35;;;;;;;4.40;0.75;;;;;;;;;;4957457;28;20482;-86
2022/05/12 00:35:01;;;;;;;6.13;1.00;;;;;;;;;;4957668;28;20050;-86
2022/05/12 00:37:27;;;;;;;6.35;1.23;;;;;;;;;;4957625;28;20043;-86
2022/05/12 00:39:53;;;;;;;4.80;0.90;;;;;;;;;;4957680;28;20142;-87
2022/05/12 00:42:19;;;;;;;4.35;0.95;;;;;;;;;;4957287;28;20048;-86
2022/05/12 00:44:45;;;;;;;4.47;0.80;;;;;;;;;;4957868;28;20513;-86
2022/05/12 00:47:11;;;;;;;4.00;0.88;;;;;;;;;;4957194;28;20443;-86
2022/05/12 00:49:38;;;;;;;6.00;0.80;;;;;;;;;;4957598;28;20038;-86
2022/05/12 00:52:07;;;;;;;5.70;0.77;;;;;;;;;;4957394;28;20061;-86
2022/05/12 00:54:52;;;;;;;4.50;0.70;;;;;;;;;;4957210;28;20411;-86
2022/05/12 00:57:26;;;;;;;3.55;0.77;;;;;;;;;;4957156;28;20047;-87
2022/05/12 00:59:52;;;;;;;4.00;0.70;;;;;;;;;;4957406;28;20047;-86
2022/05/12 01:02:20;;;;;;;3.55;0.57;;;;;;;;;;4957088;28;20398;-86
2022/05/12 01:04:47;;;;;;;4.88;0.90;;;;;;;;;;4957144;28;20077;-86
2022/05/12 01:07:14;;;;;;;4.03;0.80;;;;;;;;;;4957094;28;20049;-86
2022/05/12 01:09:40;;;;;;;4.88;0.60;;;;;;;;;;4956948;28;20490;-86
2022/05/12 01:12:06;;;;;;;3.25;0.65;;;;;;;;;;4957028;28;20364;-86
2022/05/12 01:14:32;;;;;;;4.72;0.82;;;;;;;;;;4956987;28;20162;-86
2022/05/12 01:17:00;;;;;;;6.03;0.95;;;;;;;;;;4956718;28;20486;-86
2022/05/12 01:19:27;;;;;;;2.38;0.65;;;;;;;;;;4940829;28;20039;-86
2022/05/12 01:21:54;;;;;;;7.82;1.20;;;;;;;;;;4956694;28;20057;-86
2022/05/12 01:24:21;;;;;;;7.60;1.08;;;;;;;;;;4940760;28;20039;-86
2022/05/12 01:26:47;;;;;;;2.90;0.63;;;;;;;;;;4956628;28;20054;-86
2022/05/12 01:29:13;;;;;;;5.38;1.17;;;;;;;;;;4956637;28;20042;-86
2022/05/12 01:31:40;;;;;;;6.05;0.88;;;;;;;;;;4956696;28;20125;-86
2022/05/12 01:34:07;;;;;;;2.95;0.77;;;;;;;;;;4957221;28;20061;-85
2022/05/12 01:36:33;;;;;;;4.60;0.80;;;;;;;;;;4956788;28;20075;-86
2022/05/12 01:38:59;;;;;;;3.40;0.68;;;;;;;;;;4956645;28;20405;-86
2022/05/12 01:41:26;;;;;;;4.25;0.68;;;;;;;;;;4956797;28;20486;-86
2022/05/12 01:43:52;;;;;;;4.07;0.80;;;;;;;;;;4956696;28;20644;-85
2022/05/12 01:46:18;;;;;;;3.30;0.70;;;;;;;;;;4940526;28;20133;-86
2022/05/12 01:48:44;;;;;;;3.75;1.00;;;;;;;;;;4956565;28;20122;-86
2022/05/12 01:51:10;;;;;;;3.97;0.80;;;;;;;;;;4956600;28;20050;-86
2022/05/12 01:53:36;;;;;;;2.47;0.80;;;;;;;;;;4956201;28;20077;-86
2022/05/12 01:56:04;;;;;;;4.40;0.93;;;;;;;;;;4956625;28;20050;-85
2022/05/12 01:58:30;;;;;;;5.85;1.08;;;;;;;;;;4956602;28;20101;-86
2022/05/12 02:00:56;;;;;;;4.25;0.85;;;;;;;;;;4956523;28;20047;-85
2022/05/12 02:03:22;;;;;;;6.45;1.20;;;;;;;;;;4956427;28;20054;-86
2022/05/12 02:05:48;;;;;;;5.82;1.00;;;;;;;;;;4956787;28;20034;-86
2022/05/12 02:08:16;;;;;;;2.75;0.80;;;;;;;;;;4956157;28;20039;-86
2022/05/12 02:10:45;;;;;;;6.03;1.33;;;;;;;;;;4956542;28;20042;-86
2022/05/12 02:13:12;;;;;;;2.72;0.90;;;;;;;;;;4956504;28;20359;-87
2022/05/12 02:15:38;;;;;;;5.05;1.10;;;;;;;;;;4956609;28;20126;-87
2022/05/12 02:18:05;;;;;;;4.35;1.00;;;;;;;;;;4940217;28;20568;-86
2022/05/12 02:20:31;;;;;;;4.40;1.10;;;;;;;;;;4956619;28;20047;-86
2022/05/12 02:22:57;;;;;;;6.05;1.30;;;;;;;;;;4956413;28;20512;-87
2022/05/12 02:25:23;;;;;;;6.55;1.45;;;;;;;;;;4956365;28;20046;-87
2022/05/12 02:27:50;;;;;;;5.78;1.30;;;;;;;;;;4956038;28;20075;-86
2022/05/12 02:30:19;;;;;;;6.03;1.33;;;;;;;;;;4956229;28;20039;-86
2022/05/12 02:32:45;;;;;;;4.65;1.30;;;;;;;;;;4956296;28;20475;-88
2022/05/12 02:35:12;;;;;;;7.18;1.40;;;;;;;;;;4973562;28;20046;-86
2022/05/12 02:37:39;;;;;;;5.70;1.75;;;;;;;;;;4939887;28;20545;-86
2022/05/12 02:40:05;;;;;;;5.07;1.50;;;;;;;;;;4956579;28;20043;-86
2022/05/12 02:42:31;;;;;;;6.55;1.85;;;;;;;;;;4959458;28;20047;-86
2022/05/12 02:44:57;;;;;;;7.88;1.45;;;;;;;;;;4960119;28;20050;-86
2022/05/12 02:47:23;;;;;;;6.75;1.70;;;;;;;;;;4959234;28;20093;-86
2022/05/12 02:49:49;;;;;;;5.65;1.70;;;;;;;;;;4959706;28;20383;-85
2022/05/12 02:52:15;;;;;;;7.30;1.90;;;;;;;;;;4959497;28;20102;-86
2022/05/12 02:54:41;;;;;;;8.93;1.83;;;;;;;;;;4959332;28;20511;-86
2022/05/12 02:57:07;;;;;;;5.32;1.75;;;;;;;;;;4959360;28;20051;-86
2022/05/12 02:59:34;;;;;;;9.25;1.83;;;;;;;;;;4943472;28;20043;-87
2022/05/12 03:02:00;;;;;;;5.88;1.60;;;;;;;;;;4959288;28;20046;-87
2022/05/12 03:04:27;;;;;;;7.97;1.73;;;;;;;;;;4959442;28;20054;-87
2022/05/12 03:06:53;;;;;;;5.90;1.90;;;;;;;;;;4959279;28;20490;-86
2022/05/12 03:09:19;;;;;;;11.38;1.92;;;;;;;;;;4959072;28;20046;-86
2022/05/12 03:11:45;;;;;;;6.13;1.63;;;;;;;;;;4959198;28;20074;-86
2022/05/12 03:14:11;;;;;;;6.80;2.00;;;;;;;;;;4959089;28;20513;-85
2022/05/12 03:16:37;;;;;;;6.40;2.03;;;;;;;;;;4959032;28;20051;-86
2022/05/12 03:19:03;;;;;;;6.22;2.00;;;;;;;;;;4942911;28;20376;-86
2022/05/12 03:21:30;;;;;;;6.15;1.90;;;;;;;;;;4959032;28;20513;-87
2022/05/12 03:23:56;;;;;;;6.55;2.35;;;;;;;;;;4959076;28;20147;-86
2022/05/12 03:26:22;;;;;;;6.65;1.90;;;;;;;;;;4959336;28;20054;-86
2022/05/12 03:28:48;;;;;;;7.10;2.30;;;;;;;;;;4958643;28;20043;-87
2022/05/12 03:31:14;;;;;;;7.80;2.15;;;;;;;;;;4958812;28;20046;-86
2022/05/12 03:33:41;;;;;;;7.68;2.45;;;;;;;;;;4958662;28;20038;-86
2022/05/12 03:36:07;;;;;;;9.20;2.30;;;;;;;;;;4959147;28;20035;-86
2022/05/12 03:38:33;;;;;;;7.88;2.10;;;;;;;;;;4958470;28;20116;-86
2022/05/12 03:40:59;;;;;;;6.15;2.10;;;;;;;;;;4958813;28;20042;-86
2022/05/12 03:46:12;;;;;;;7.40;2.22;;;;;;;;;;4958967;28;20162;-86
2022/05/12 03:48:39;;;;;;;12.02;2.70;;;;;;;;;;4958302;28;20043;-86
2022/05/12 03:51:05;;;;;;;8.20;2.47;;;;;;;;;;4958479;28;20617;-86
2022/05/12 03:53:32;;;;;;;8.32;2.30;;;;;;;;;;4958038;28;20498;-86
2022/05/12 03:55:59;;;;;;;6.25;2.00;;;;;;;;;;4958476;28;20126;-87
2022/05/12 03:58:25;;;;;;;8.18;2.22;;;;;;;;;;4958077;28;20078;-86
2022/05/12 04:00:51;;;;;;;10.15;3.28;;;;;;;;;;4942495;28;20085;-87
2022/05/12 04:03:17;;;;;;;5.57;2.10;;;;;;;;;;4958078;28;20057;-86
2022/05/12 04:05:43;;;;;;;7.03;2.00;;;;;;;;;;4958419;28;20461;-86
2022/05/12 04:08:09;;;;;;;8.00;2.40;;;;;;;;;;4957860;28;20042;-86
2022/05/12 04:10:35;;;;;;;5.88;2.17;;;;;;;;;;4958217;28;20105;-86
2022/05/12 04:13:02;;;;;;;9.23;2.70;;;;;;;;;;4958024;28;20494;-86
2022/05/12 04:15:28;;;;;;;8.18;2.40;;;;;;;;;;4958004;28;20093;-86
2022/05/12 04:18:12;;;;;;;6.35;2.20;;;;;;;;;;4941806;28;20043;-86
2022/05/12 04:20:38;;;;;;;7.68;2.22;;;;;;;;;;4958307;28;20482;-87
2022/05/12 04:23:04;;;;;;;8.00;2.30;;;;;;;;;;4941829;28;20049;-86
2022/05/12 04:25:30;;;;;;;6.60;2.38;;;;;;;;;;4957870;28;20059;-87
2022/05/12 04:27:56;;;;;;;9.02;2.20;;;;;;;;;;4957539;28;20047;-87
2022/05/12 04:30:24;;;;;;;8.68;2.03;;;;;;;;;;4942213;28;20129;-87
2022/05/12 04:32:51;;;;;;;9.52;2.22;;;;;;;;;;4957791;28;20490;-86
2022/05/12 04:35:17;;;;;;;7.90;2.28;;;;;;;;;;4957589;28;20031;-86
2022/05/12 04:37:45;;;;;;;6.97;2.45;;;;;;;;;;4957567;28;20042;-86
2022/05/12 04:40:11;;;;;;;8.48;2.80;;;;;;;;;;4957611;28;20094;-86
2022/05/12 04:42:37;;;;;;;9.85;2.75;;;;;;;;;;4957650;28;20043;-86
2022/05/12 04:45:03;;;;;;;7.22;2.20;;;;;;;;;;4957528;28;20046;-87
2022/05/12 04:47:29;;;;;;;8.98;2.47;;;;;;;;;;4957539;28;20042;-86
2022/05/12 04:49:56;;;;;;;5.68;2.13;;;;;;;;;;4957303;28;20057;-87
2022/05/12 04:52:24;;;;;;;8.23;2.60;;;;;;;;;;4957796;28;20047;-87
2022/05/12 04:54:50;;;;;;;8.52;2.30;;;;;;;;;;4957072;28;20051;-87
2022/05/12 04:57:16;;;;;;;8.18;2.60;;;;;;;;;;4957571;28;20101;-86
2022/05/12 04:59:42;;;;;;;7.75;2.45;;;;;;;;;;4941098;28;20069;-87
2022/05/12 05:02:08;;;;;;;8.75;2.83;;;;;;;;;;4957462;28;20043;-86
2022/05/12 05:04:34;;;;;;;11.48;2.45;;;;;;;;;;4956826;28;20122;-86
2022/05/12 05:07:00;;;;;;;7.68;3.03;;;;;;;;;;4957340;28;20038;-86
2022/05/12 05:09:26;;;;;;;7.95;2.65;;;;;;;;;;4956885;28;20573;-87
2022/05/12 05:11:52;;;;;;;10.68;3.10;;;;;;;;;;4957086;28;20039;-86
2022/05/12 05:14:19;;;;;;;8.02;3.17;;;;;;;;;;4940957;28;20039;-86
2022/05/12 05:16:46;;;;;;;7.13;2.90;;;;;;;;;;4957133;28;20078;-86
2022/05/12 05:19:12;;;;;;;8.80;2.90;;;;;;;;;;4956870;28;20046;-86
2022/05/12 05:21:37;;;;;;;9.32;3.28;;;;;;;;;;4956981;28;20126;-87
2022/05/12 05:24:03;;;;;;;10.65;3.63;;;;;;;;;;4957088;28;20058;-86
2022/05/12 05:26:30;;;;;;;7.68;2.70;;;;;;;;;;4956947;28;20082;-87
2022/05/12 05:28:56;;;;;;;10.25;3.35;;;;;;;;;;4956667;28;20074;-87
2022/05/12 05:31:22;;;;;;;10.20;3.72;;;;;;;;;;4957002;28;20052;-86
2022/05/12 05:33:49;;;;;;;10.32;4.00;;;;;;;;;;4940961;28;20117;-86
2022/05/12 05:36:15;;;;;;;11.15;3.65;;;;;;;;;;4957002;28;20046;-87
2022/05/12 05:38:41;;;;;;;11.52;4.13;;;;;;;;;;4956582;28;20053;-86
2022/05/12 05:41:08;;;;;;;9.90;3.20;;;;;;;;;;4956730;28;20050;-86
2022/05/12 05:43:34;;;;;;;13.25;4.15;;;;;;;;;;4956665;28;20050;-86
2022/05/12 05:46:00;;;;;;;9.98;3.53;;;;;;;;;;4956538;28;20106;-85
2022/05/12 05:48:26;;;;;;;13.68;4.07;;;;;;;;;;4956656;28;20125;-86
2022/05/12 05:53:38;;;;;;;9.07;3.55;;;;;;;;;;4956415;28;20054;-87
2022/05/12 05:56:06;;;;;;;12.52;3.72;;;;;;;;;;4953085;29;20509;-86
2022/05/12 05:58:32;;;;;;;9.68;3.80;;;;;;;;;;4953295;28;20388;-86
2022/05/12 06:00:59;;;;;;;12.80;3.65;;;;;;;;;;4937439;29;20043;-86
2022/05/12 06:03:26;;;;;;;10.63;4.60;;;;;;;;;;4953411;29;20047;-86
2022/05/12 06:05:52;;;;;;;14.07;3.95;;;;;;;;;;4953131;28;20098;-86
2022/05/12 06:08:20;;;;;;;12.85;4.45;;;;;;;;;;4953225;28;20495;-87
2022/05/12 06:10:46;;;;;;;11.40;3.65;;;;;;;;;;4953227;29;20424;-87
2022/05/12 06:13:13;;;;;;;10.43;3.58;;;;;;;;;;4953262;29;20043;-87
2022/05/12 06:15:39;;;;;;;13.75;3.80;;;;;;;;;;4937891;29;20134;-87
2022/05/12 06:18:10;;;;;;;11.55;3.95;;;;;;;;;;4956971;28;20043;-86
2022/05/12 06:20:37;;;;;;;11.55;4.78;;;;;;;;;;4956792;28;20535;-89
2022/05/12 06:23:03;;;;;;;10.20;4.03;;;;;;;;;;4941205;29;20062;-88
2022/05/12 06:25:29;;;;;;;12.68;4.65;;;;;;;;;;4956775;29;20047;-87
2022/05/12 06:27:55;;;;;;;8.25;3.70;;;;;;;;;;4956770;29;20048;-87
2022/05/12 06:30:21;;;;;;;10.38;4.53;;;;;;;;;;4956855;29;20357;-87
2022/05/12 06:32:47;;;;;;;10.60;4.15;;;;;;;;;;4956915;29;20039;-84
2022/05/12 06:35:16;;;;;;;9.75;4.10;;;;;;;;;;4956695;29;20043;-86
2022/05/12 06:37:42;;;;;;;9.07;4.03;;;;;;;;;;4940955;29;20043;-87
2022/05/12 06:40:09;;;;;;;11.35;3.72;;;;;;;;;;4956097;28;20067;-87
2022/05/12 06:42:35;;;;;;;9.82;3.90;;;;;;;;;;4956208;28;20047;-87
2022/05/12 06:45:01;;;;;;;9.10;3.55;;;;;;;;;;4950675;29;20047;-85
2022/05/12 06:47:28;;;;;;;10.18;3.55;;;;;;;;;;4955905;29;20055;-88
2022/05/12 06:49:55;;;;;;;11.30;3.83;;;;;;;;;;4971810;28;20050;-85
2022/05/12 06:52:21;;;;;;;11.45;4.10;;;;;;;;;;4956301;29;20491;-86
2022/05/12 06:54:47;;;;;;;9.68;4.03;;;;;;;;;;4955815;28;20062;-87
2022/05/12 06:57:21;;;;;;;13.52;3.58;;;;;;;;;;4926593;29;20062;-86
2022/05/12 06:59:47;;;;;;;10.75;3.63;;;;;;;;;;4956015;29;20511;-86
2022/05/12 07:02:13;;;;;;;11.18;3.38;;;;;;;;;;4955994;28;20051;-88
2022/05/12 07:04:39;;;;;;;10.27;3.22;;;;;;;;;;4939558;29;20394;-86
2022/05/12 07:07:05;;;;;;;8.77;3.10;;;;;;;;;;4957312;28;20461;-86
2022/05/12 07:09:32;;;;;;;13.30;3.45;;;;;;;;;;4955641;28;20499;-87
2022/05/12 07:11:58;;;;;;;8.10;3.22;;;;;;;;;;4955734;29;20047;-86
2022/05/12 07:14:24;;;;;;;11.00;3.85;;;;;;;;;;4955983;28;20078;-86
2022/05/12 07:16:50;;;;;;;10.15;3.45;;;;;;;;;;4955584;28;20122;-87
2022/05/12 07:19:17;;;;;;;8.98;3.63;;;;;;;;;;4955539;29;20047;-87
2022/05/12 07:27:16;;;;;;;8.87;3.23;;;;;;;;;;4954793;28;20134;-87
2022/05/12 07:29:42;;;;;;;10.68;3.45;;;;;;;;;;4954955;29;20118;-86
2022/05/12 07:32:08;;;;;;;13.88;3.22;;;;;;;;;;4955336;28;20603;-86
2022/05/12 07:34:34;;;;;;;8.65;3.42;;;;;;;;;;4955113;28;20482;-87
2022/05/12 07:37:00;;;;;;;11.60;3.00;;;;;;;;;;4927286;29;20499;-91
2022/05/12 07:39:28;;;;;;;9.07;2.90;;;;;;;;;;4952920;28;20040;-87
2022/05/12 07:41:56;;;;;;;7.05;2.40;;;;;;;;;;4935837;29;20043;-87
2022/05/12 07:44:22;;;;;;;7.78;2.35;;;;;;;;;;4955033;29;20040;-86
2022/05/12 07:46:49;;;;;;;7.90;2.30;;;;;;;;;;4939397;29;20390;-86
2022/05/12 07:49:15;;;;;;;7.30;2.60;;;;;;;;;;4955287;28;20109;-87
2022/05/12 07:51:41;;;;;;;6.88;2.00;;;;;;;;;;4955136;28;20035;-86
2022/05/12 07:54:08;;;;;;;6.53;1.88;;;;;;;;;;4955058;29;20065;-87
2022/05/12 07:56:34;;;;;;;7.38;2.13;;;;;;;;;;4954953;29;20047;-87
2022/05/12 07:59:00;;;;;;;8.05;1.92;;;;;;;;;;4939147;29;20130;-87
2022/05/12 08:01:27;;;;;;;6.63;1.77;;;;;;;;;;4954758;29;20057;-88
2022/05/12 08:03:53;;;;;;;8.55;2.08;;;;;;;;;;4955048;28;20043;-88
2022/05/12 08:06:20;;;;;;;7.45;2.20;;;;;;;;;;4955210;29;20047;-88
2022/05/12 08:08:48;;;;;;;7.15;2.10;;;;;;;;;;4938802;29;20494;-85
2022/05/12 08:11:14;;;;;;;8.40;2.30;;;;;;;;;;4971035;28;20051;-86
2022/05/12 08:13:46;;;;;;;9.98;2.40;;;;;;;;;;4956290;29;20167;-87
2022/05/12 08:16:12;;;;;;;9.40;1.98;;;;;;;;;;4971034;28;20050;-87
2022/05/12 08:18:38;;;;;;;7.53;1.98;;;;;;;;;;4938687;29;20047;-87
2022/05/12 08:21:05;;;;;;;9.80;2.35;;;;;;;;;;4954727;29;20047;-87
2022/05/12 08:23:31;;;;;;;7.15;1.95;;;;;;;;;;4955106;29;20047;-88
2022/05/12 08:25:57;;;;;;;5.20;1.92;;;;;;;;;;4954485;28;20130;-87
2022/05/12 08:28:24;;;;;;;6.00;1.55;;;;;;;;;;4954998;29;20241;-88
2022/05/12 08:30:51;;;;;;;7.53;2.00;;;;;;;;;;4938607;29;20047;-91
2022/05/12 08:33:17;;;;;;;8.82;2.38;;;;;;;;;;4938626;29;20039;-87
2022/05/12 08:35:43;;;;;;;7.35;1.88;;;;;;;;;;4954307;29;20078;-86
2022/05/12 08:38:10;;;;;;;8.38;1.58;;;;;;;;;;4953601;28;20102;-87
2022/05/12 08:40:44;;;;;;;5.65;1.75;;;;;;;;;;4954390;29;20364;-86
2022/05/12 08:43:13;;;;;;;9.70;2.17;;;;;;;;;;4954630;29;20047;-86
2022/05/12 08:45:40;;;;;;;7.93;1.73;;;;;;;;;;4953988;28;20050;-86
2022/05/12 08:48:07;;;;;;;6.80;1.80;;;;;;;;;;4954179;29;20043;-87
2022/05/12 08:50:33;;;;;;;8.07;1.58;;;;;;;;;;4970060;28;20175;-86
2022/05/12 08:53:05;;;;;;;7.18;1.40;;;;;;;;;;4970333;28;20051;-86
2022/05/12 08:55:43;;;;;;;5.07;1.38;;;;;;;;;;4969122;28;20241;-87
2022/05/12 08:58:09;;;;;;;8.07;1.30;;;;;;;;;;4938016;29;20083;-86
2022/05/12 09:00:40;;;;;;;5.75;1.30;;;;;;;;;;4954160;29;20070;-84
2022/05/12 09:03:14;;;;;;;6.50;1.45;;;;;;;;;;4953959;29;20043;-86
2022/05/12 09:05:45;;;;;;;6.38;1.15;;;;;;;;;;4953782;29;20395;-86
2022/05/12 09:08:25;;;;;;;6.88;1.50;;;;;;;;;;4953800;29;20093;-86
2022/05/12 09:11:06;;;;;;;8.63;1.70;;;;;;;;;;4953662;29;20039;-86
2022/05/12 09:13:32;;;;;;;7.55;1.10;;;;;;;;;;4970228;28;20066;-87
2022/05/12 09:16:17;;;;;;;7.05;1.38;;;;;;;;;;4953589;29;20427;-86
2022/05/12 09:18:43;;;;;;;6.15;1.30;;;;;;;;;;4953998;28;20066;-86
2022/05/12 09:21:12;;;;;;;6.68;1.20;;;;;;;;;;4937653;29;20131;-86
2022/05/12 09:23:38;;;;;;;6.38;1.23;;;;;;;;;;4953926;29;20043;-87
2022/05/12 09:26:22;;;;;;;5.10;1.40;;;;;;;;;;4953697;28;20046;-86
2022/05/12 09:28:48;;;;;;;4.82;1.20;;;;;;;;;;4953523;29;20388;-86
2022/05/12 09:31:17;;;;;;;4.22;1.25;;;;;;;;;;4953514;29;20043;-89
2022/05/12 09:33:45;;;;;;;9.63;1.30;;;;;;;;;;4953812;29;20062;-89
2022/05/12 09:36:25;;;;;;;6.70;1.58;;;;;;;;;;4953377;29;20046;-86
2022/05/12 09:38:54;;;;;;;6.43;1.48;;;;;;;;;;4953651;29;20039;-86
2022/05/12 09:41:40;;;;;;;9.88;1.40;;;;;;;;;;4969445;28;20614;-86
2022/05/12 09:44:06;;;;;;;;;;;;;;;;;;4955258;29;20058;-83
2022/05/12 09:46:32;;;;;;;8.85;1.58;;;;;;;;;;4969463;28;19918;-86
2022/05/12 09:49:18;;;;;;;5.57;1.30;;;;;;;;;;4953412;28;20047;-86
2022/05/12 09:51:44;;;;;;;5.75;1.27;;;;;;;;;;4959677;28;20043;-86
2022/05/12 09:54:15;;;;;;;4.05;1.05;;;;;;;;;;4959591;28;20059;-86
2022/05/12 09:56:41;;;;;;;6.30;1.20;;;;;;;;;;4975764;28;20125;-87
2022/05/12 09:59:20;;;;;;;4.95;0.98;;;;;;;;;;4959744;28;20463;-85
2022/05/12 10:01:51;;;;;;;4.05;1.05;;;;;;;;;;4959606;29;20043;-86
2022/05/12 10:10:07;;;;;;;8.65;1.50;;;;;;;;;;4930933;28;20475;-87
2022/05/12 10:12:41;;;;;;;7.47;1.17;;;;;;;;;;4959580;28;20078;-90
2022/05/12 10:15:16;;;;;;;9.48;1.38;;;;;;;;;;4944842;29;20035;-88
2022/05/12 10:17:42;;;;;;;;;;;;;;;;;;4959937;29;20130;-87
2022/05/12 10:20:08;;;;;;;;;;;;;;;;;;4976372;28;19985;-88
2022/05/12 10:22:34;;;;;;;;;;;;;;;;;;4944156;29;20008;-87
2022/05/12 10:25:07;;;;;;;6.50;1.05;;;;;;;;;;4975712;28;19983;-87
2022/05/12 10:27:47;;;;;;;5.57;1.40;;;;;;;;;;4943310;29;20039;-89
2022/05/12 10:30:23;;;;;;;4.78;0.88;;;;;;;;;;4959588;29;20406;-86
2022/05/12 10:33:06;;;;;;;6.50;1.20;;;;;;;;;;4943380;29;20039;-85
2022/05/12 10:35:47;;;;;;;4.50;0.93;;;;;;;;;;4959736;29;20043;-86
2022/05/12 10:38:32;;;;;;;5.68;1.02;;;;;;;;;;4959156;28;20062;-87
2022/05/12 10:41:03;;;;;;;6.10;1.43;;;;;;;;;;4959765;29;20502;-86
2022/05/12 10:43:46;;;;;;;5.63;1.20;;;;;;;;;;4958248;29;20377;-85
2022/05/12 10:46:15;;;;;;;7.20;1.20;;;;;;;;;;4943313;29;20097;-87
2022/05/12 10:48:48;;;;;;;10.25;1.35;;;;;;;;;;4958864;28;20043;-87
2022/05/12 10:51:17;;;;;;;6.38;1.20;;;;;;;;;;4943364;29;20077;-86
2022/05/12 10:53:48;;;;;;;6.45;1.20;;;;;;;;;;4959343;28;20078;-86
2022/05/12 10:56:28;;;;;;;7.72;1.75;;;;;;;;;;4978807;28;20048;-86
2022/05/12 10:59:07;;;;;;;6.20;1.15;;;;;;;;;;4962343;28;20054;-88
2022/05/12 11:01:35;;;;;;;5.50;1.30;;;;;;;;;;4969487;28;20047;-86
2022/05/12 11:04:06;;;;;;;5.97;0.98;;;;;;;;;;4943915;28;20061;-88
2022/05/12 11:06:35;;;;;;;6.22;1.10;;;;;;;;;;4959934;28;20102;-87
2022/05/12 11:09:24;;;;;;;5.40;1.13;;;;;;;;;;4959308;28;20050;-87
2022/05/12 11:11:51;;;;;;;5.38;1.42;;;;;;;;;;4935628;28;20077;-86
2022/05/12 11:14:33;;;;;;;3.90;0.90;;;;;;;;;;4959203;28;20046;-87
2022/05/12 11:17:18;;;;;;;9.18;1.50;;;;;;;;;;4958283;28;20442;-85
2022/05/12 11:19:46;;;;;;;5.40;1.00;;;;;;;;;;4959326;28;20491;-86
2022/05/12 11:22:15;;;;;;;6.88;1.13;;;;;;;;;;4940905;28;20054;-87
2022/05/12 11:24:47;;;;;;;4.90;1.10;;;;;;;;;;4975116;28;20078;-86
2022/05/12 11:27:33;;;;;;;6.90;1.38;;;;;;;;;;4942800;28;20508;-88
2022/05/12 11:30:18;;;;;;;6.28;1.15;;;;;;;;;;4975213;28;20039;-86
2022/05/12 11:32:53;;;;;;;5.38;1.10;;;;;;;;;;4974843;28;20061;-86
2022/05/12 11:35:21;;;;;;;5.93;1.33;;;;;;;;;;4974993;28;20034;-88
2022/05/12 11:37:47;;;;;;;5.93;1.17;;;;;;;;;;4974879;28;20047;-86
2022/05/12 11:40:32;;;;;;;5.90;1.20;;;;;;;;;;4975581;28;20042;-89
2022/05/12 11:45:49;;;;;;;9.85;1.45;;;;;;;;;;4958960;28;20050;-89
2022/05/12 11:48:34;;;;;;;4.97;1.30;;;;;;;;;;4942578;28;20513;-85
2022/05/12 11:51:09;;;;;;;5.63;0.95;;;;;;;;;;4974682;28;20049;-86
2022/05/12 11:53:56;;;;;;;4.10;0.95;;;;;;;;;;4974422;28;20061;-85
2022/05/12 11:56:37;;;;;;;9.02;1.50;;;;;;;;;;4958633;28;20053;-85
2022/05/12 11:59:16;;;;;;;3.95;1.10;;;;;;;;;;4974544;28;20469;-86
2022/05/12 12:01:42;;;;;;;7.25;1.00;;;;;;;;;;4942217;28;20101;-85
2022/05/12 12:04:13;;;;;;;5.00;1.35;;;;;;;;;;4942232;28;20042;-85
2022/05/12 12:06:41;;;;;;;8.90;1.60;;;;;;;;;;4975873;28;20097;-86
2022/05/12 12:09:26;;;;;;;5.18;1.30;;;;;;;;;;4974195;28;20445;-80
2022/05/12 12:11:52;;;;;;;9.18;1.75;;;;;;;;;;4973282;28;20470;-84
2022/05/12 12:14:37;;;;;;;4.90;0.80;;;;;;;;;;4973057;28;20738;-84
2022/05/12 12:17:06;;;;;;;4.25;0.80;;;;;;;;;;4974515;28;20054;-84
2022/05/12 12:19:41;;;;;;;5.78;1.13;;;;;;;;;;4973942;28;20046;-84
2022/05/12 12:22:26;;;;;;;5.30;1.40;;;;;;;;;;4974047;28;20406;-84
2022/05/12 12:25:04;;;;;;;4.88;1.20;;;;;;;;;;4974137;28;20482;-85
2022/05/12 12:27:46;;;;;;;6.68;1.35;;;;;;;;;;4975078;28;20429;-85
2022/05/12 12:30:23;;;;;;;5.05;1.20;;;;;;;;;;4974291;28;20039;-84
2022/05/12 12:33:08;;;;;;;4.72;1.02;;;;;;;;;;4973648;28;20132;-86
2022/05/12 12:35:49;;;;;;;5.35;1.45;;;;;;;;;;4973805;28;20045;-85
2022/05/12 12:38:34;;;;;;;5.63;1.00;;;;;;;;;;4957644;28;20126;-84
2022/05/12 12:41:00;;;;;;;4.18;1.15;;;;;;;;;;4973744;28;20398;-85
2022/05/12 12:43:34;;;;;;;4.90;1.27;;;;;;;;;;4974694;28;20041;-84
2022/05/12 12:46:08;;;;;;;4.30;1.00;;;;;;;;;;4973940;28;20046;-85
2022/05/12 12:48:37;;;;;;;5.10;1.10;;;;;;;;;;4941352;28;20502;-84
2022/05/12 12:51:03;;;;;;;5.65;1.27;;;;;;;;;;4973592;28;20039;-85
2022/05/12 12:56:35;;;;;;;6.30;1.20;;;;;;;;;;4957817;28;20086;-85
2022/05/12 12:59:12;;;;;;;7.00;1.27;;;;;;;;;;4974419;28;20490;-84
2022/05/12 13:01:50;;;;;;;6.85;1.15;;;;;;;;;;4971243;28;20053;-82
2022/05/12 13:04:20;;;;;;;4.88;1.35;;;;;;;;;;4941007;28;20206;-86
2022/05/12 13:06:51;;;;;;;8.90;1.52;;;;;;;;;;4973250;28;20046;-84
2022/05/12 13:09:23;;;;;;;5.65;0.90;;;;;;;;;;4972962;28;20034;-85
2022/05/12 13:11:49;;;;;;;3.72;0.80;;;;;;;;;;4973270;28;20046;-85
2022/05/12 13:14:16;;;;;;;5.50;1.30;;;;;;;;;;4973012;28;20038;-84
2022/05/12 13:16:49;;;;;;;6.40;1.48;;;;;;;;;;4974320;28;20043;-85
2022/05/12 13:19:15;;;;;;;5.47;1.10;;;;;;;;;;4969701;28;20494;-85
2022/05/12 13:21:46;;;;;;;3.97;1.10;;;;;;;;;;4973254;28;20394;-86
2022/05/12 13:24:27;;;;;;;6.03;1.55;;;;;;;;;;4972262;28;20043;-85
2022/05/12 13:26:54;;;;;;;6.65;1.30;;;;;;;;;;4940909;28;20078;-85
2022/05/12 13:29:27;;;;;;;4.45;1.20;;;;;;;;;;4972496;28;20126;-84
2022/05/12 13:31:55;;;;;;;3.53;1.00;;;;;;;;;;4973128;28;20561;-84
2022/05/12 13:34:23;;;;;;;5.57;1.10;;;;;;;;;;4972613;28;20042;-85
2022/05/12 13:36:53;;;;;;;5.07;1.15;;;;;;;;;;4973071;28;20061;-85
2022/05/12 13:39:38;;;;;;;5.97;1.20;;;;;;;;;;4972454;28;20058;-85
2022/05/12 13:42:05;;;;;;;6.85;1.20;;;;;;;;;;4957081;28;20434;-84
2022/05/12 13:44:36;;;;;;;4.15;1.00;;;;;;;;;;4940525;28;20078;-84
2022/05/12 13:47:04;;;;;;;8.70;1.23;;;;;;;;;;4957052;28;20047;-85
2022/05/12 13:49:35;;;;;;;4.85;1.05;;;;;;;;;;4972437;28;20516;-84
2022/05/12 13:52:13;;;;;;;7.47;1.27;;;;;;;;;;4973960;28;20509;-85
2022/05/12 13:54:41;;;;;;;9.82;1.38;;;;;;;;;;4972550;28;20450;-83
2022/05/12 13:57:26;;;;;;;6.30;1.15;;;;;;;;;;4973968;28;20043;-85
2022/05/12 13:59:53;;;;;;;3.38;0.90;;;;;;;;;;4972598;28;20039;-86
2022/05/12 14:02:24;;;;;;;5.72;1.00;;;;;;;;;;4972517;28;20051;-85
2022/05/12 14:04:50;;;;;;;4.32;1.15;;;;;;;;;;4972524;28;20123;-85
2022/05/12 14:07:26;;;;;;;4.97;1.02;;;;;;;;;;4972515;28;20046;-84
2022/05/12 14:09:52;;;;;;;;;;;;;;;;;;4972932;28;20376;-85
2022/05/12 14:12:28;;;;;;;5.20;1.20;;;;;;;;;;4972823;28;19918;-85
2022/05/12 14:20:38;;;;;;;12.77;1.55;;;;;;;;;;4956306;28;20082;-85
2022/05/12 14:23:04;;;;;;;6.85;1.17;;;;;;;;;;4972745;28;20051;-84
2022/05/12 14:25:30;;;;;;;7.63;1.13;;;;;;;;;;4972280;28;20555;-84
2022/05/12 14:27:56;;;;;;;4.82;1.02;;;;;;;;;;4940295;28;20101;-85
2022/05/12 14:30:22;;;;;;;10.52;1.30;;;;;;;;;;4972518;28;20039;-85
2022/05/12 14:32:55;;;;;;;11.00;1.77;;;;;;;;;;4972633;28;20051;-84
2022/05/12 14:35:24;;;;;;;12.13;1.50;;;;;;;;;;4972210;28;20047;-85
2022/05/12 14:37:50;;;;;;;5.38;1.00;;;;;;;;;;4974730;28;20130;-84
2022/05/12 14:40:17;;;;;;;7.25;1.40;;;;;;;;;;4975764;28;20054;-85
2022/05/12 14:42:43;;;;;;;5.97;1.33;;;;;;;;;;4977463;28;20042;-85
2022/05/12 14:45:09;;;;;;;7.25;1.50;;;;;;;;;;4943525;28;20453;-85
2022/05/12 14:47:36;;;;;;;7.53;1.33;;;;;;;;;;4977075;28;20126;-85
2022/05/12 14:50:03;;;;;;;5.03;1.20;;;;;;;;;;4975943;28;20086;-85
2022/05/12 14:52:29;;;;;;;5.82;1.40;;;;;;;;;;4976952;28;20043;-85
2022/05/12 14:54:56;;;;;;;6.97;1.42;;;;;;;;;;4975303;28;20047;-85
2022/05/12 14:57:23;;;;;;;7.20;1.40;;;;;;;;;;4959405;28;20097;-85
2022/05/12 14:59:49;;;;;;;5.35;1.10;;;;;;;;;;4974859;28;20427;-85
2022/05/12 15:02:17;;;;;;;8.60;1.52;;;;;;;;;;4975613;28;20043;-85
2022/05/12 15:04:43;;;;;;;5.85;1.48;;;;;;;;;;4974229;28;20050;-85
2022/05/12 15:07:12;;;;;;;5.45;1.33;;;;;;;;;;4975384;28;20478;-86
2022/05/12 15:09:38;;;;;;;5.60;1.50;;;;;;;;;;4974016;28;20086;-86
2022/05/12 15:12:04;;;;;;;4.38;1.25;;;;;;;;;;4959376;28;20039;-85
2022/05/12 15:14:30;;;;;;;3.85;1.20;;;;;;;;;;4975502;28;20399;-85
2022/05/12 15:16:57;;;;;;;7.53;1.42;;;;;;;;;;4959474;28;20434;-86
2022/05/12 15:19:23;;;;;;;6.10;1.33;;;;;;;;;;4974166;28;20054;-85
2022/05/12 15:21:49;;;;;;;5.55;1.45;;;;;;;;;;4975227;28;20046;-86